sensor_id;sensor_type;location;lat;lon;timestamp;P1;durP1;ratioP1;P2;durP2;ratioP2
63218;SDS011;49320;52.512;13.448;2023-05-23T00:02:12;3.47;;;2.60;;
63218;SDS011;49320;52.512;13.448;2023-05-23T00:04:40;4.25;;;3.00;;
63218;SDS011;49320;52.512;13.448;2023-05-23T00:07:08;4.18;;;2.97;;
63218;SDS011;49320;52.512;13.448;2023-05-23T00:09:35;5.50;;;2.88;;
63218;SDS011;49320;52.512;13.448;2023-05-23T00:12:02;3.38;;;2.70;;
63218;SDS011;49320;52.512;13.448;2023-05-23T00:14:29;4.85;;;2.90;;
63218;SDS011;49320;52.512;13.448;2023-05-23T00:16:59;4.20;;;2.83;;
63218;SDS011;49320;52.512;13.448;2023-05-23T00:19:26;3.80;;;2.40;;
63218;SDS011;49320;52.512;13.448;2023-05-23T00:21:53;4.63;;;3.22;;
63218;SDS011;49320;52.512;13.448;2023-05-23T00:24:24;4.53;;;2.95;;
63218;SDS011;49320;52.512;13.448;2023-05-23T00:26:51;3.40;;;2.65;;
63218;SDS011;49320;52.512;13.448;2023-05-23T00:29:17;3.78;;;3.20;;
63218;SDS011;49320;52.512;13.448;2023-05-23T00:31:44;4.10;;;2.90;;
63218;SDS011;49320;52.512;13.448;2023-05-23T00:34:13;4.57;;;3.10;;
63218;SDS011;49320;52.512;13.448;2023-05-23T00:36:43;3.53;;;3.08;;
63218;SDS011;49320;52.512;13.448;2023-05-23T00:39:13;5.95;;;2.67;;
63218;SDS011;49320;52.512;13.448;2023-05-23T00:41:45;4.22;;;3.08;;
63218;SDS011;49320;52.512;13.448;2023-05-23T00:44:18;3.92;;;2.97;;
63218;SDS011;49320;52.512;13.448;2023-05-23T00:46:46;4.18;;;2.80;;
63218;SDS011;49320;52.512;13.448;2023-05-23T00:49:20;3.88;;;2.97;;
63218;SDS011;49320;52.512;13.448;2023-05-23T00:51:47;4.50;;;3.10;;
63218;SDS011;49320;52.512;13.448;2023-05-23T00:54:33;3.65;;;3.15;;
63218;SDS011;49320;52.512;13.448;2023-05-23T00:57:02;5.57;;;3.10;;
63218;SDS011;49320;52.512;13.448;2023-05-23T00:59:29;3.35;;;2.83;;
63218;SDS011;49320;52.512;13.448;2023-05-23T01:01:57;4.40;;;2.70;;
63218;SDS011;49320;52.512;13.448;2023-05-23T01:04:25;3.65;;;3.03;;
63218;SDS011;49320;52.512;13.448;2023-05-23T01:06:53;3.58;;;2.67;;
63218;SDS011;49320;52.512;13.448;2023-05-23T01:09:21;3.13;;;2.50;;
63218;SDS011;49320;52.512;13.448;2023-05-23T01:12:03;5.72;;;2.60;;
63218;SDS011;49320;52.512;13.448;2023-05-23T01:14:46;5.38;;;2.67;;
63218;SDS011;49320;52.512;13.448;2023-05-23T01:17:33;3.53;;;2.65;;
63218;SDS011;49320;52.512;13.448;2023-05-23T01:20:21;3.60;;;2.95;;
63218;SDS011;49320;52.512;13.448;2023-05-23T01:25:48;3.58;;;2.75;;
63218;SDS011;49320;52.512;13.448;2023-05-23T01:28:41;4.10;;;2.63;;
63218;SDS011;49320;52.512;13.448;2023-05-23T01:31:12;5.75;;;2.58;;
63218;SDS011;49320;52.512;13.448;2023-05-23T01:33:42;3.30;;;2.80;;
63218;SDS011;49320;52.512;13.448;2023-05-23T01:36:11;3.40;;;2.78;;
63218;SDS011;49320;52.512;13.448;2023-05-23T01:38:40;3.28;;;2.63;;
63218;SDS011;49320;52.512;13.448;2023-05-23T01:41:08;4.88;;;3.08;;
63218;SDS011;49320;52.512;13.448;2023-05-23T01:43:34;4.38;;;3.40;;
63218;SDS011;49320;52.512;13.448;2023-05-23T01:46:02;5.18;;;3.33;;
63218;SDS011;49320;52.512;13.448;2023-05-23T01:48:33;4.10;;;3.30;;
63218;SDS011;49320;52.512;13.448;2023-05-23T01:51:01;4.20;;;3.28;;
63218;SDS011;49320;52.512;13.448;2023-05-23T01:53:28;4.90;;;3.38;;
63218;SDS011;49320;52.512;13.448;2023-05-23T01:55:57;5.70;;;3.22;;
63218;SDS011;49320;52.512;13.448;2023-05-23T01:58:28;3.95;;;2.92;;
63218;SDS011;49320;52.512;13.448;2023-05-23T02:00:55;4.35;;;3.22;;
63218;SDS011;49320;52.512;13.448;2023-05-23T02:03:22;4.25;;;3.08;;
63218;SDS011;49320;52.512;13.448;2023-05-23T02:05:49;5.28;;;3.47;;
63218;SDS011;49320;52.512;13.448;2023-05-23T02:08:16;5.50;;;3.00;;
63218;SDS011;49320;52.512;13.448;2023-05-23T02:10:43;6.50;;;3.17;;
63218;SDS011;49320;52.512;13.448;2023-05-23T02:13:10;3.92;;;3.10;;
63218;SDS011;49320;52.512;13.448;2023-05-23T02:15:37;4.90;;;3.47;;
63218;SDS011;49320;52.512;13.448;2023-05-23T02:18:04;4.18;;;3.08;;
63218;SDS011;49320;52.512;13.448;2023-05-23T02:20:31;4.80;;;3.33;;
63218;SDS011;49320;52.512;13.448;2023-05-23T02:22:58;5.07;;;2.88;;
63218;SDS011;49320;52.512;13.448;2023-05-23T02:25:25;3.47;;;3.03;;
63218;SDS011;49320;52.512;13.448;2023-05-23T02:27:52;3.72;;;3.05;;
63218;SDS011;49320;52.512;13.448;2023-05-23T02:30:18;5.07;;;3.20;;
63218;SDS011;49320;52.512;13.448;2023-05-23T02:32:45;4.00;;;3.22;;
63218;SDS011;49320;52.512;13.448;2023-05-23T02:35:12;5.07;;;3.15;;
63218;SDS011;49320;52.512;13.448;2023-05-23T02:37:39;4.00;;;3.17;;
63218;SDS011;49320;52.512;13.448;2023-05-23T02:40:06;9.75;;;3.17;;
63218;SDS011;49320;52.512;13.448;2023-05-23T02:42:33;4.30;;;2.90;;
63218;SDS011;49320;52.512;13.448;2023-05-23T02:45:00;5.63;;;3.42;;
63218;SDS011;49320;52.512;13.448;2023-05-23T02:47:27;4.90;;;3.33;;
63218;SDS011;49320;52.512;13.448;2023-05-23T02:49:54;3.92;;;3.33;;
63218;SDS011;49320;52.512;13.448;2023-05-23T02:52:21;4.85;;;3.63;;
63218;SDS011;49320;52.512;13.448;2023-05-23T02:54:48;4.28;;;3.28;;
63218;SDS011;49320;52.512;13.448;2023-05-23T02:57:15;3.55;;;3.05;;
63218;SDS011;49320;52.512;13.448;2023-05-23T02:59:42;3.70;;;3.20;;
63218;SDS011;49320;52.512;13.448;2023-05-23T03:02:09;4.03;;;3.25;;
63218;SDS011;49320;52.512;13.448;2023-05-23T03:04:36;4.70;;;2.90;;
63218;SDS011;49320;52.512;13.448;2023-05-23T03:07:03;3.88;;;3.03;;
63218;SDS011;49320;52.512;13.448;2023-05-23T03:09:42;4.22;;;3.17;;
63218;SDS011;49320;52.512;13.448;2023-05-23T03:12:09;4.57;;;3.38;;
63218;SDS011;49320;52.512;13.448;2023-05-23T03:14:36;5.50;;;3.50;;
63218;SDS011;49320;52.512;13.448;2023-05-23T03:17:03;4.38;;;2.92;;
63218;SDS011;49320;52.512;13.448;2023-05-23T03:19:30;4.50;;;3.15;;
63218;SDS011;49320;52.512;13.448;2023-05-23T03:22:00;4.47;;;3.05;;
63218;SDS011;49320;52.512;13.448;2023-05-23T03:24:27;4.85;;;3.40;;
63218;SDS011;49320;52.512;13.448;2023-05-23T03:26:54;4.10;;;3.20;;
63218;SDS011;49320;52.512;13.448;2023-05-23T03:29:21;5.18;;;3.20;;
63218;SDS011;49320;52.512;13.448;2023-05-23T03:31:48;5.05;;;3.40;;
63218;SDS011;49320;52.512;13.448;2023-05-23T03:34:15;5.60;;;3.63;;
63218;SDS011;49320;52.512;13.448;2023-05-23T03:36:42;4.25;;;3.60;;
63218;SDS011;49320;52.512;13.448;2023-05-23T03:39:09;4.88;;;3.67;;
63218;SDS011;49320;52.512;13.448;2023-05-23T03:41:36;6.25;;;3.53;;
63218;SDS011;49320;52.512;13.448;2023-05-23T03:44:03;5.15;;;3.38;;
63218;SDS011;49320;52.512;13.448;2023-05-23T03:46:29;4.47;;;3.38;;
63218;SDS011;49320;52.512;13.448;2023-05-23T03:48:57;4.70;;;3.70;;
63218;SDS011;49320;52.512;13.448;2023-05-23T03:51:24;5.20;;;3.55;;
63218;SDS011;49320;52.512;13.448;2023-05-23T03:53:50;5.78;;;3.10;;
63218;SDS011;49320;52.512;13.448;2023-05-23T03:56:17;4.80;;;3.75;;
63218;SDS011;49320;52.512;13.448;2023-05-23T03:58:45;4.90;;;3.63;;
63218;SDS011;49320;52.512;13.448;2023-05-23T04:01:12;5.00;;;3.67;;
63218;SDS011;49320;52.512;13.448;2023-05-23T04:03:39;6.72;;;3.65;;
63218;SDS011;49320;52.512;13.448;2023-05-23T04:06:06;4.07;;;3.45;;
63218;SDS011;49320;52.512;13.448;2023-05-23T04:08:33;4.30;;;3.30;;
63218;SDS011;49320;52.512;13.448;2023-05-23T04:11:00;5.72;;;3.40;;
63218;SDS011;49320;52.512;13.448;2023-05-23T04:13:28;4.47;;;3.70;;
63218;SDS011;49320;52.512;13.448;2023-05-23T04:15:56;3.83;;;3.20;;
63218;SDS011;49320;52.512;13.448;2023-05-23T04:18:26;4.43;;;3.50;;
63218;SDS011;49320;52.512;13.448;2023-05-23T04:20:53;5.57;;;3.63;;
63218;SDS011;49320;52.512;13.448;2023-05-23T04:23:20;3.88;;;3.25;;
63218;SDS011;49320;52.512;13.448;2023-05-23T04:25:47;6.63;;;3.60;;
63218;SDS011;49320;52.512;13.448;2023-05-23T04:28:14;5.05;;;3.63;;
63218;SDS011;49320;52.512;13.448;2023-05-23T04:30:43;3.97;;;3.55;;
63218;SDS011;49320;52.512;13.448;2023-05-23T04:33:10;8.00;;;3.63;;
63218;SDS011;49320;52.512;13.448;2023-05-23T04:35:37;3.75;;;3.28;;
63218;SDS011;49320;52.512;13.448;2023-05-23T04:38:06;4.15;;;3.42;;
63218;SDS011;49320;52.512;13.448;2023-05-23T04:40:32;4.85;;;3.20;;
63218;SDS011;49320;52.512;13.448;2023-05-23T04:43:00;5.03;;;4.03;;
63218;SDS011;49320;52.512;13.448;2023-05-23T04:45:27;5.75;;;4.00;;
63218;SDS011;49320;52.512;13.448;2023-05-23T04:47:53;4.43;;;3.95;;
63218;SDS011;49320;52.512;13.448;2023-05-23T04:50:21;7.30;;;4.00;;
63218;SDS011;49320;52.512;13.448;2023-05-23T04:52:48;4.75;;;4.15;;
63218;SDS011;49320;52.512;13.448;2023-05-23T04:55:15;5.97;;;3.63;;
63218;SDS011;49320;52.512;13.448;2023-05-23T04:57:42;4.93;;;4.00;;
63218;SDS011;49320;52.512;13.448;2023-05-23T05:00:09;5.05;;;3.47;;
63218;SDS011;49320;52.512;13.448;2023-05-23T05:02:39;4.95;;;3.55;;
63218;SDS011;49320;52.512;13.448;2023-05-23T05:05:07;6.70;;;4.03;;
63218;SDS011;49320;52.512;13.448;2023-05-23T05:07:35;4.63;;;3.83;;
63218;SDS011;49320;52.512;13.448;2023-05-23T05:10:02;4.60;;;3.67;;
63218;SDS011;49320;52.512;13.448;2023-05-23T05:12:29;4.68;;;3.70;;
63218;SDS011;49320;52.512;13.448;2023-05-23T05:14:56;4.22;;;3.55;;
63218;SDS011;49320;52.512;13.448;2023-05-23T05:17:22;5.78;;;3.80;;
63218;SDS011;49320;52.512;13.448;2023-05-23T05:19:50;5.32;;;3.90;;
63218;SDS011;49320;52.512;13.448;2023-05-23T05:22:16;6.18;;;3.80;;
63218;SDS011;49320;52.512;13.448;2023-05-23T05:24:43;6.50;;;4.05;;
63218;SDS011;49320;52.512;13.448;2023-05-23T05:27:10;4.93;;;3.83;;
63218;SDS011;49320;52.512;13.448;2023-05-23T05:29:37;6.20;;;3.80;;
63218;SDS011;49320;52.512;13.448;2023-05-23T05:32:04;7.22;;;4.03;;
63218;SDS011;49320;52.512;13.448;2023-05-23T05:34:34;4.80;;;3.33;;
63218;SDS011;49320;52.512;13.448;2023-05-23T05:37:03;6.00;;;3.85;;
63218;SDS011;49320;52.512;13.448;2023-05-23T05:39:30;7.45;;;3.70;;
63218;SDS011;49320;52.512;13.448;2023-05-23T05:41:57;5.85;;;3.92;;
63218;SDS011;49320;52.512;13.448;2023-05-23T05:44:24;7.30;;;4.05;;
63218;SDS011;49320;52.512;13.448;2023-05-23T05:46:52;5.85;;;4.07;;
63218;SDS011;49320;52.512;13.448;2023-05-23T05:49:18;5.22;;;3.75;;
63218;SDS011;49320;52.512;13.448;2023-05-23T05:51:45;5.00;;;4.20;;
63218;SDS011;49320;52.512;13.448;2023-05-23T05:54:12;6.47;;;4.30;;
63218;SDS011;49320;52.512;13.448;2023-05-23T05:56:39;5.35;;;3.88;;
63218;SDS011;49320;52.512;13.448;2023-05-23T05:59:07;8.15;;;3.60;;
63218;SDS011;49320;52.512;13.448;2023-05-23T06:01:34;5.30;;;3.80;;
63218;SDS011;49320;52.512;13.448;2023-05-23T06:04:01;9.20;;;4.03;;
63218;SDS011;49320;52.512;13.448;2023-05-23T06:06:28;6.32;;;3.65;;
63218;SDS011;49320;52.512;13.448;2023-05-23T06:08:54;6.15;;;3.88;;
63218;SDS011;49320;52.512;13.448;2023-05-23T06:11:22;7.28;;;4.00;;
63218;SDS011;49320;52.512;13.448;2023-05-23T06:13:49;4.43;;;4.00;;
63218;SDS011;49320;52.512;13.448;2023-05-23T06:16:16;9.68;;;4.70;;
63218;SDS011;49320;52.512;13.448;2023-05-23T06:18:43;6.22;;;4.20;;
63218;SDS011;49320;52.512;13.448;2023-05-23T06:21:10;4.68;;;3.83;;
63218;SDS011;49320;52.512;13.448;2023-05-23T06:23:37;9.00;;;4.60;;
63218;SDS011;49320;52.512;13.448;2023-05-23T06:26:04;7.13;;;4.38;;
63218;SDS011;49320;52.512;13.448;2023-05-23T06:28:38;6.18;;;4.28;;
63218;SDS011;49320;52.512;13.448;2023-05-23T06:31:05;7.38;;;4.38;;
63218;SDS011;49320;52.512;13.448;2023-05-23T06:33:35;6.30;;;4.75;;
63218;SDS011;49320;52.512;13.448;2023-05-23T06:36:01;5.82;;;4.35;;
63218;SDS011;49320;52.512;13.448;2023-05-23T06:38:29;6.35;;;4.43;;
63218;SDS011;49320;52.512;13.448;2023-05-23T06:41:00;5.03;;;4.15;;
63218;SDS011;49320;52.512;13.448;2023-05-23T06:43:28;7.57;;;4.50;;
63218;SDS011;49320;52.512;13.448;2023-05-23T06:45:55;10.73;;;4.10;;
63218;SDS011;49320;52.512;13.448;2023-05-23T06:48:22;5.47;;;4.15;;
63218;SDS011;49320;52.512;13.448;2023-05-23T06:50:49;8.10;;;4.72;;
63218;SDS011;49320;52.512;13.448;2023-05-23T06:53:16;7.55;;;4.40;;
63218;SDS011;49320;52.512;13.448;2023-05-23T06:55:44;5.40;;;4.13;;
63218;SDS011;49320;52.512;13.448;2023-05-23T06:58:11;6.60;;;4.20;;
63218;SDS011;49320;52.512;13.448;2023-05-23T07:00:38;9.00;;;4.78;;
63218;SDS011;49320;52.512;13.448;2023-05-23T07:03:05;7.63;;;4.60;;
63218;SDS011;49320;52.512;13.448;2023-05-23T07:05:32;6.88;;;4.15;;
63218;SDS011;49320;52.512;13.448;2023-05-23T07:08:00;5.65;;;4.10;;
63218;SDS011;49320;52.512;13.448;2023-05-23T07:10:26;7.10;;;4.43;;
63218;SDS011;49320;52.512;13.448;2023-05-23T07:12:54;7.90;;;4.45;;
63218;SDS011;49320;52.512;13.448;2023-05-23T07:15:21;5.93;;;4.63;;
63218;SDS011;49320;52.512;13.448;2023-05-23T07:17:48;5.18;;;4.10;;
63218;SDS011;49320;52.512;13.448;2023-05-23T07:20:15;4.90;;;3.75;;
63218;SDS011;49320;52.512;13.448;2023-05-23T07:22:42;5.95;;;4.32;;
63218;SDS011;49320;52.512;13.448;2023-05-23T07:25:09;4.97;;;4.05;;
63218;SDS011;49320;52.512;13.448;2023-05-23T07:27:35;7.18;;;4.20;;
63218;SDS011;49320;52.512;13.448;2023-05-23T07:30:02;7.53;;;4.03;;
63218;SDS011;49320;52.512;13.448;2023-05-23T07:32:30;7.57;;;4.50;;
63218;SDS011;49320;52.512;13.448;2023-05-23T07:34:57;7.30;;;4.70;;
63218;SDS011;49320;52.512;13.448;2023-05-23T07:37:24;8.60;;;4.70;;
63218;SDS011;49320;52.512;13.448;2023-05-23T07:39:52;5.32;;;4.30;;
63218;SDS011;49320;52.512;13.448;2023-05-23T07:42:19;6.05;;;4.07;;
63218;SDS011;49320;52.512;13.448;2023-05-23T07:44:46;6.65;;;4.60;;
63218;SDS011;49320;52.512;13.448;2023-05-23T07:47:13;5.22;;;4.03;;
63218;SDS011;49320;52.512;13.448;2023-05-23T07:49:40;6.53;;;4.32;;
63218;SDS011;49320;52.512;13.448;2023-05-23T07:52:06;7.00;;;4.05;;
63218;SDS011;49320;52.512;13.448;2023-05-23T07:54:33;6.10;;;4.40;;
63218;SDS011;49320;52.512;13.448;2023-05-23T07:57:00;5.88;;;4.20;;
63218;SDS011;49320;52.512;13.448;2023-05-23T07:59:27;4.75;;;3.88;;
63218;SDS011;49320;52.512;13.448;2023-05-23T08:01:55;3.88;;;3.45;;
63218;SDS011;49320;52.512;13.448;2023-05-23T08:04:22;4.70;;;3.70;;
63218;SDS011;49320;52.512;13.448;2023-05-23T08:06:49;5.07;;;4.18;;
63218;SDS011;49320;52.512;13.448;2023-05-23T08:09:30;4.78;;;3.67;;
63218;SDS011;49320;52.512;13.448;2023-05-23T08:11:57;6.10;;;4.10;;
63218;SDS011;49320;52.512;13.448;2023-05-23T08:14:25;7.85;;;3.63;;
63218;SDS011;49320;52.512;13.448;2023-05-23T08:17:12;5.72;;;4.53;;
63218;SDS011;49320;52.512;13.448;2023-05-23T08:19:40;6.75;;;4.15;;
63218;SDS011;49320;52.512;13.448;2023-05-23T08:22:07;6.50;;;3.97;;
63218;SDS011;49320;52.512;13.448;2023-05-23T08:24:35;7.63;;;4.28;;
63218;SDS011;49320;52.512;13.448;2023-05-23T08:27:02;5.68;;;4.00;;
63218;SDS011;49320;52.512;13.448;2023-05-23T08:29:29;5.50;;;4.22;;
63218;SDS011;49320;52.512;13.448;2023-05-23T08:31:56;5.10;;;3.70;;
63218;SDS011;49320;52.512;13.448;2023-05-23T08:34:22;5.05;;;3.97;;
63218;SDS011;49320;52.512;13.448;2023-05-23T08:36:49;5.20;;;3.80;;
63218;SDS011;49320;52.512;13.448;2023-05-23T08:39:17;4.63;;;4.05;;
63218;SDS011;49320;52.512;13.448;2023-05-23T08:41:44;4.05;;;3.50;;
63218;SDS011;49320;52.512;13.448;2023-05-23T08:44:11;4.60;;;4.00;;
63218;SDS011;49320;52.512;13.448;2023-05-23T08:46:39;6.30;;;4.38;;
63218;SDS011;49320;52.512;13.448;2023-05-23T08:49:12;4.68;;;4.00;;
63218;SDS011;49320;52.512;13.448;2023-05-23T08:51:43;4.35;;;3.65;;
63218;SDS011;49320;52.512;13.448;2023-05-23T08:54:12;4.40;;;3.53;;
63218;SDS011;49320;52.512;13.448;2023-05-23T08:56:39;4.68;;;3.92;;
63218;SDS011;49320;52.512;13.448;2023-05-23T08:59:07;6.03;;;3.83;;
63218;SDS011;49320;52.512;13.448;2023-05-23T09:01:36;3.88;;;3.47;;
63218;SDS011;49320;52.512;13.448;2023-05-23T09:04:05;4.97;;;4.00;;
63218;SDS011;49320;52.512;13.448;2023-05-23T09:06:33;5.50;;;4.15;;
63218;SDS011;49320;52.512;13.448;2023-05-23T09:09:00;5.90;;;4.10;;
63218;SDS011;49320;52.512;13.448;2023-05-23T09:11:27;5.82;;;3.85;;
63218;SDS011;49320;52.512;13.448;2023-05-23T09:13:54;4.32;;;3.90;;
63218;SDS011;49320;52.512;13.448;2023-05-23T09:16:22;4.93;;;3.90;;
63218;SDS011;49320;52.512;13.448;2023-05-23T09:18:57;7.60;;;3.97;;
63218;SDS011;49320;52.512;13.448;2023-05-23T09:21:25;6.35;;;3.50;;
63218;SDS011;49320;52.512;13.448;2023-05-23T09:23:52;4.93;;;4.13;;
63218;SDS011;49320;52.512;13.448;2023-05-23T09:26:20;6.40;;;4.22;;
63218;SDS011;49320;52.512;13.448;2023-05-23T09:28:47;6.65;;;3.90;;
63218;SDS011;49320;52.512;13.448;2023-05-23T09:31:14;5.45;;;4.25;;
63218;SDS011;49320;52.512;13.448;2023-05-23T09:33:44;5.15;;;4.03;;
63218;SDS011;49320;52.512;13.448;2023-05-23T09:36:13;4.95;;;4.38;;
63218;SDS011;49320;52.512;13.448;2023-05-23T09:38:41;6.22;;;4.68;;
63218;SDS011;49320;52.512;13.448;2023-05-23T09:41:11;4.15;;;3.60;;
63218;SDS011;49320;52.512;13.448;2023-05-23T09:43:39;6.70;;;4.45;;
63218;SDS011;49320;52.512;13.448;2023-05-23T09:46:16;6.10;;;4.30;;
63218;SDS011;49320;52.512;13.448;2023-05-23T09:48:48;5.78;;;4.35;;
63218;SDS011;49320;52.512;13.448;2023-05-23T09:51:18;6.57;;;4.32;;
63218;SDS011;49320;52.512;13.448;2023-05-23T09:53:47;5.32;;;4.05;;
63218;SDS011;49320;52.512;13.448;2023-05-23T09:56:15;5.47;;;3.97;;
63218;SDS011;49320;52.512;13.448;2023-05-23T09:58:46;5.95;;;4.40;;
63218;SDS011;49320;52.512;13.448;2023-05-23T10:01:15;5.40;;;4.68;;
63218;SDS011;49320;52.512;13.448;2023-05-23T10:03:47;11.05;;;5.47;;
63218;SDS011;49320;52.512;13.448;2023-05-23T10:09:19;5.35;;;4.28;;
63218;SDS011;49320;52.512;13.448;2023-05-23T10:12:09;7.05;;;4.60;;
63218;SDS011;49320;52.512;13.448;2023-05-23T10:15:04;7.82;;;4.72;;
63218;SDS011;49320;52.512;13.448;2023-05-23T10:20:47;5.07;;;4.43;;
63218;SDS011;49320;52.512;13.448;2023-05-23T10:23:18;5.05;;;4.15;;
63218;SDS011;49320;52.512;13.448;2023-05-23T10:25:46;5.82;;;3.90;;
63218;SDS011;49320;52.512;13.448;2023-05-23T10:28:14;6.03;;;4.78;;
63218;SDS011;49320;52.512;13.448;2023-05-23T10:30:41;5.53;;;4.20;;
63218;SDS011;49320;52.512;13.448;2023-05-23T10:33:09;7.65;;;6.00;;
63218;SDS011;49320;52.512;13.448;2023-05-23T10:35:53;7.22;;;5.18;;
63218;SDS011;49320;52.512;13.448;2023-05-23T10:38:33;6.30;;;5.28;;
63218;SDS011;49320;52.512;13.448;2023-05-23T10:41:12;5.63;;;4.63;;
63218;SDS011;49320;52.512;13.448;2023-05-23T10:43:54;10.43;;;4.90;;
63218;SDS011;49320;52.512;13.448;2023-05-23T10:49:36;6.30;;;5.70;;
63218;SDS011;49320;52.512;13.448;2023-05-23T10:52:17;6.78;;;6.07;;
63218;SDS011;49320;52.512;13.448;2023-05-23T10:54:49;5.68;;;5.18;;
63218;SDS011;49320;52.512;13.448;2023-05-23T10:57:24;10.35;;;5.78;;
63218;SDS011;49320;52.512;13.448;2023-05-23T10:59:54;8.55;;;6.05;;
63218;SDS011;49320;52.512;13.448;2023-05-23T11:02:25;5.90;;;5.40;;
63218;SDS011;49320;52.512;13.448;2023-05-23T11:10:58;6.97;;;6.20;;
63218;SDS011;49320;52.512;13.448;2023-05-23T11:16:28;8.50;;;6.57;;
63218;SDS011;49320;52.512;13.448;2023-05-23T11:21:44;7.88;;;7.07;;
63218;SDS011;49320;52.512;13.448;2023-05-23T11:24:15;8.60;;;7.72;;
63218;SDS011;49320;52.512;13.448;2023-05-23T11:26:56;8.93;;;7.53;;
63218;SDS011;49320;52.512;13.448;2023-05-23T11:31:56;8.50;;;7.70;;
63218;SDS011;49320;52.512;13.448;2023-05-23T11:34:26;9.10;;;8.20;;
63218;SDS011;49320;52.512;13.448;2023-05-23T11:36:53;8.23;;;7.47;;
63218;SDS011;49320;52.512;13.448;2023-05-23T11:39:21;8.68;;;7.88;;
63218;SDS011;49320;52.512;13.448;2023-05-23T11:41:58;10.20;;;9.13;;
63218;SDS011;49320;52.512;13.448;2023-05-23T11:44:26;10.02;;;8.02;;
63218;SDS011;49320;52.512;13.448;2023-05-23T11:47:03;10.50;;;9.48;;
63218;SDS011;49320;52.512;13.448;2023-05-23T11:49:34;9.30;;;8.35;;
63218;SDS011;49320;52.512;13.448;2023-05-23T11:52:05;11.07;;;10.00;;
63218;SDS011;49320;52.512;13.448;2023-05-23T11:54:32;11.30;;;9.27;;
63218;SDS011;49320;52.512;13.448;2023-05-23T11:56:59;11.32;;;10.20;;
63218;SDS011;49320;52.512;13.448;2023-05-23T11:59:28;12.30;;;8.95;;
63218;SDS011;49320;52.512;13.448;2023-05-23T12:01:55;9.68;;;8.77;;
63218;SDS011;49320;52.512;13.448;2023-05-23T12:04:22;12.80;;;9.27;;
63218;SDS011;49320;52.512;13.448;2023-05-23T12:06:52;11.50;;;10.20;;
63218;SDS011;49320;52.512;13.448;2023-05-23T12:09:18;11.70;;;10.20;;
63218;SDS011;49320;52.512;13.448;2023-05-23T12:11:47;12.35;;;10.23;;
63218;SDS011;49320;52.512;13.448;2023-05-23T12:14:15;10.95;;;9.85;;
63218;SDS011;49320;52.512;13.448;2023-05-23T12:16:44;11.30;;;10.05;;
63218;SDS011;49320;52.512;13.448;2023-05-23T12:19:12;11.82;;;10.35;;
63218;SDS011;49320;52.512;13.448;2023-05-23T12:21:43;11.80;;;10.65;;
63218;SDS011;49320;52.512;13.448;2023-05-23T12:27:25;12.18;;;10.80;;
63218;SDS011;49320;52.512;13.448;2023-05-23T12:29:48;10.35;;;9.27;;
63218;SDS011;49320;52.512;13.448;2023-05-23T12:32:18;14.45;;;10.65;;
63218;SDS011;49320;52.512;13.448;2023-05-23T12:34:45;12.23;;;11.02;;
63218;SDS011;49320;52.512;13.448;2023-05-23T12:37:12;12.27;;;10.82;;
63218;SDS011;49320;52.512;13.448;2023-05-23T12:39:42;11.77;;;10.55;;
63218;SDS011;49320;52.512;13.448;2023-05-23T12:42:10;11.50;;;10.40;;
63218;SDS011;49320;52.512;13.448;2023-05-23T12:44:39;13.27;;;11.98;;
63218;SDS011;49320;52.512;13.448;2023-05-23T12:47:08;15.73;;;12.00;;
63218;SDS011;49320;52.512;13.448;2023-05-23T12:49:38;12.82;;;11.13;;
63218;SDS011;49320;52.512;13.448;2023-05-23T12:52:05;12.98;;;10.73;;
63218;SDS011;49320;52.512;13.448;2023-05-23T12:54:32;13.38;;;10.52;;
63218;SDS011;49320;52.512;13.448;2023-05-23T12:56:59;10.45;;;8.75;;
63218;SDS011;49320;52.512;13.448;2023-05-23T12:59:26;9.38;;;8.35;;
63218;SDS011;49320;52.512;13.448;2023-05-23T13:01:53;11.60;;;9.20;;
63218;SDS011;49320;52.512;13.448;2023-05-23T13:04:20;12.32;;;9.73;;
63218;SDS011;49320;52.512;13.448;2023-05-23T13:06:47;11.18;;;10.07;;
63218;SDS011;49320;52.512;13.448;2023-05-23T13:09:14;10.18;;;9.27;;
63218;SDS011;49320;52.512;13.448;2023-05-23T13:11:41;8.93;;;8.13;;
63218;SDS011;49320;52.512;13.448;2023-05-23T13:14:08;10.80;;;9.80;;
63218;SDS011;49320;52.512;13.448;2023-05-23T13:16:34;9.38;;;8.35;;
63218;SDS011;49320;52.512;13.448;2023-05-23T13:19:02;8.57;;;7.68;;
63218;SDS011;49320;52.512;13.448;2023-05-23T13:21:28;9.15;;;8.32;;
63218;SDS011;49320;52.512;13.448;2023-05-23T13:23:56;8.85;;;7.95;;
63218;SDS011;49320;52.512;13.448;2023-05-23T13:26:24;11.23;;;10.02;;
63218;SDS011;49320;52.512;13.448;2023-05-23T13:28:51;10.40;;;9.40;;
63218;SDS011;49320;52.512;13.448;2023-05-23T13:31:18;13.05;;;10.25;;
63218;SDS011;49320;52.512;13.448;2023-05-23T13:33:46;12.88;;;10.77;;
63218;SDS011;49320;52.512;13.448;2023-05-23T13:36:12;13.27;;;11.25;;
63218;SDS011;49320;52.512;13.448;2023-05-23T13:38:39;15.02;;;12.07;;
63218;SDS011;49320;52.512;13.448;2023-05-23T13:41:06;13.55;;;11.35;;
63218;SDS011;49320;52.512;13.448;2023-05-23T13:43:33;12.40;;;11.10;;
63218;SDS011;49320;52.512;13.448;2023-05-23T13:46:00;12.73;;;11.23;;
63218;SDS011;49320;52.512;13.448;2023-05-23T13:48:28;12.15;;;10.88;;
63218;SDS011;49320;52.512;13.448;2023-05-23T13:50:55;10.82;;;9.73;;
63218;SDS011;49320;52.512;13.448;2023-05-23T13:53:22;12.27;;;10.10;;
63218;SDS011;49320;52.512;13.448;2023-05-23T13:55:48;10.15;;;9.15;;
63218;SDS011;49320;52.512;13.448;2023-05-23T13:58:15;9.63;;;8.63;;
63218;SDS011;49320;52.512;13.448;2023-05-23T14:00:42;12.77;;;9.20;;
63218;SDS011;49320;52.512;13.448;2023-05-23T14:03:09;13.95;;;9.48;;
63218;SDS011;49320;52.512;13.448;2023-05-23T14:05:37;10.90;;;8.95;;
63218;SDS011;49320;52.512;13.448;2023-05-23T14:08:05;10.77;;;9.00;;
63218;SDS011;49320;52.512;13.448;2023-05-23T14:10:32;11.45;;;9.18;;
63218;SDS011;49320;52.512;13.448;2023-05-23T14:12:59;13.68;;;10.32;;
63218;SDS011;49320;52.512;13.448;2023-05-23T14:15:26;13.00;;;11.32;;
63218;SDS011;49320;52.512;13.448;2023-05-23T14:17:53;13.95;;;11.77;;
63218;SDS011;49320;52.512;13.448;2023-05-23T14:20:21;16.65;;;10.32;;
63218;SDS011;49320;52.512;13.448;2023-05-23T14:22:49;12.30;;;10.90;;
63218;SDS011;49320;52.512;13.448;2023-05-23T14:25:17;12.63;;;11.32;;
63218;SDS011;49320;52.512;13.448;2023-05-23T14:27:44;17.05;;;12.18;;
63218;SDS011;49320;52.512;13.448;2023-05-23T14:30:11;12.55;;;11.25;;
63218;SDS011;49320;52.512;13.448;2023-05-23T14:32:38;13.38;;;11.52;;
63218;SDS011;49320;52.512;13.448;2023-05-23T14:35:05;12.07;;;10.88;;
63218;SDS011;49320;52.512;13.448;2023-05-23T14:37:35;13.55;;;10.07;;
63218;SDS011;49320;52.512;13.448;2023-05-23T14:40:04;11.63;;;10.40;;
63218;SDS011;49320;52.512;13.448;2023-05-23T14:42:32;12.48;;;11.05;;
63218;SDS011;49320;52.512;13.448;2023-05-23T14:44:59;11.80;;;10.60;;
63218;SDS011;49320;52.512;13.448;2023-05-23T14:47:26;12.02;;;10.48;;
63218;SDS011;49320;52.512;13.448;2023-05-23T14:49:53;12.95;;;10.93;;
63218;SDS011;49320;52.512;13.448;2023-05-23T14:52:19;12.02;;;10.73;;
63218;SDS011;49320;52.512;13.448;2023-05-23T14:54:46;10.60;;;9.52;;
63218;SDS011;49320;52.512;13.448;2023-05-23T14:57:13;11.05;;;9.93;;
63218;SDS011;49320;52.512;13.448;2023-05-23T14:59:40;11.40;;;9.52;;
63218;SDS011;49320;52.512;13.448;2023-05-23T15:02:07;9.73;;;8.63;;
63218;SDS011;49320;52.512;13.448;2023-05-23T15:04:34;10.75;;;9.65;;
63218;SDS011;49320;52.512;13.448;2023-05-23T15:07:02;10.15;;;9.05;;
63218;SDS011;49320;52.512;13.448;2023-05-23T15:09:29;10.90;;;9.45;;